sensor_id;sensor_type;location;lat;lon;timestamp;P1;durP1;ratioP1;P2;durP2;ratioP2
22632;SDS011;11483;55.828;37.488;2024-03-02T00:01:05;65.60;;;24.80;;
22632;SDS011;11483;55.828;37.488;2024-03-02T00:03:32;67.43;;;25.10;;
22632;SDS011;11483;55.828;37.488;2024-03-02T00:05:58;82.83;;;26.47;;
22632;SDS011;11483;55.828;37.488;2024-03-02T00:08:24;72.00;;;25.77;;
22632;SDS011;11483;55.828;37.488;2024-03-02T00:10:51;65.90;;;24.43;;
22632;SDS011;11483;55.828;37.488;2024-03-02T00:13:22;62.97;;;26.33;;
22632;SDS011;11483;55.828;37.488;2024-03-02T00:15:50;83.60;;;26.63;;
22632;SDS011;11483;55.828;37.488;2024-03-02T00:18:19;65.53;;;25.17;;
22632;SDS011;11483;55.828;37.488;2024-03-02T00:20:49;75.03;;;25.37;;
22632;SDS011;11483;55.828;37.488;2024-03-02T00:23:19;73.40;;;25.57;;
22632;SDS011;11483;55.828;37.488;2024-03-02T00:25:47;69.77;;;24.50;;
22632;SDS011;11483;55.828;37.488;2024-03-02T00:28:30;67.03;;;24.33;;
22632;SDS011;11483;55.828;37.488;2024-03-02T00:33:33;65.50;;;25.37;;
22632;SDS011;11483;55.828;37.488;2024-03-02T00:36:01;70.30;;;25.20;;
22632;SDS011;11483;55.828;37.488;2024-03-02T00:38:28;69.63;;;24.63;;
22632;SDS011;11483;55.828;37.488;2024-03-02T00:40:59;62.93;;;24.27;;
22632;SDS011;11483;55.828;37.488;2024-03-02T00:43:41;79.53;;;25.50;;
22632;SDS011;11483;55.828;37.488;2024-03-02T00:46:15;63.53;;;24.60;;
22632;SDS011;11483;55.828;37.488;2024-03-02T00:48:44;84.57;;;26.47;;
22632;SDS011;11483;55.828;37.488;2024-03-02T00:51:18;64.60;;;24.30;;
22632;SDS011;11483;55.828;37.488;2024-03-02T00:53:44;69.37;;;25.13;;
22632;SDS011;11483;55.828;37.488;2024-03-02T00:56:10;63.50;;;24.97;;
22632;SDS011;11483;55.828;37.488;2024-03-02T00:58:39;72.57;;;26.63;;
22632;SDS011;11483;55.828;37.488;2024-03-02T01:01:05;76.40;;;25.00;;
22632;SDS011;11483;55.828;37.488;2024-03-02T01:03:32;72.83;;;24.10;;
22632;SDS011;11483;55.828;37.488;2024-03-02T01:05:59;74.43;;;25.77;;
22632;SDS011;11483;55.828;37.488;2024-03-02T01:08:25;79.73;;;25.47;;
22632;SDS011;11483;55.828;37.488;2024-03-02T01:10:54;88.10;;;28.33;;
22632;SDS011;11483;55.828;37.488;2024-03-02T01:13:21;68.67;;;25.77;;
22632;SDS011;11483;55.828;37.488;2024-03-02T01:15:48;85.53;;;25.40;;
22632;SDS011;11483;55.828;37.488;2024-03-02T01:18:14;70.93;;;26.83;;
22632;SDS011;11483;55.828;37.488;2024-03-02T01:20:40;76.13;;;25.13;;
22632;SDS011;11483;55.828;37.488;2024-03-02T01:23:06;72.30;;;25.27;;
22632;SDS011;11483;55.828;37.488;2024-03-02T01:25:32;72.57;;;25.83;;
22632;SDS011;11483;55.828;37.488;2024-03-02T01:27:58;69.67;;;25.03;;
22632;SDS011;11483;55.828;37.488;2024-03-02T01:30:24;78.30;;;25.43;;
22632;SDS011;11483;55.828;37.488;2024-03-02T01:32:49;61.93;;;24.23;;
22632;SDS011;11483;55.828;37.488;2024-03-02T01:35:16;63.10;;;24.73;;
22632;SDS011;11483;55.828;37.488;2024-03-02T01:37:41;68.13;;;25.03;;
22632;SDS011;11483;55.828;37.488;2024-03-02T01:40:07;70.80;;;25.93;;
22632;SDS011;11483;55.828;37.488;2024-03-02T01:42:36;68.17;;;26.60;;
22632;SDS011;11483;55.828;37.488;2024-03-02T01:45:06;72.07;;;25.03;;
22632;SDS011;11483;55.828;37.488;2024-03-02T01:47:33;70.73;;;25.23;;
22632;SDS011;11483;55.828;37.488;2024-03-02T01:50:00;69.63;;;24.87;;
22632;SDS011;11483;55.828;37.488;2024-03-02T01:52:26;74.80;;;24.60;;
22632;SDS011;11483;55.828;37.488;2024-03-02T01:54:53;68.50;;;25.40;;
22632;SDS011;11483;55.828;37.488;2024-03-02T01:57:19;73.80;;;26.10;;
22632;SDS011;11483;55.828;37.488;2024-03-02T01:59:45;69.63;;;25.97;;
22632;SDS011;11483;55.828;37.488;2024-03-02T02:02:16;73.80;;;26.23;;
22632;SDS011;11483;55.828;37.488;2024-03-02T02:04:42;69.00;;;26.33;;
22632;SDS011;11483;55.828;37.488;2024-03-02T02:07:08;77.37;;;25.27;;
22632;SDS011;11483;55.828;37.488;2024-03-02T02:09:35;78.27;;;26.30;;
22632;SDS011;11483;55.828;37.488;2024-03-02T02:12:01;71.97;;;25.97;;
22632;SDS011;11483;55.828;37.488;2024-03-02T02:14:27;66.30;;;23.90;;
22632;SDS011;11483;55.828;37.488;2024-03-02T02:16:53;71.40;;;25.97;;
22632;SDS011;11483;55.828;37.488;2024-03-02T02:19:19;64.33;;;25.83;;
22632;SDS011;11483;55.828;37.488;2024-03-02T02:21:45;76.83;;;26.00;;
22632;SDS011;11483;55.828;37.488;2024-03-02T02:24:11;67.60;;;24.63;;
22632;SDS011;11483;55.828;37.488;2024-03-02T02:26:38;75.30;;;26.17;;
22632;SDS011;11483;55.828;37.488;2024-03-02T02:29:04;66.50;;;25.60;;
22632;SDS011;11483;55.828;37.488;2024-03-02T02:31:41;70.03;;;25.63;;
22632;SDS011;11483;55.828;37.488;2024-03-02T02:34:08;68.50;;;25.10;;
22632;SDS011;11483;55.828;37.488;2024-03-02T02:36:34;79.90;;;25.87;;
22632;SDS011;11483;55.828;37.488;2024-03-02T02:39:05;72.07;;;26.03;;
22632;SDS011;11483;55.828;37.488;2024-03-02T02:41:36;77.53;;;27.20;;
22632;SDS011;11483;55.828;37.488;2024-03-02T02:44:01;70.60;;;25.97;;
22632;SDS011;11483;55.828;37.488;2024-03-02T02:46:27;78.17;;;25.77;;
22632;SDS011;11483;55.828;37.488;2024-03-02T02:48:54;85.27;;;25.80;;
22632;SDS011;11483;55.828;37.488;2024-03-02T02:51:20;63.17;;;25.43;;
22632;SDS011;11483;55.828;37.488;2024-03-02T02:53:46;75.87;;;25.67;;
22632;SDS011;11483;55.828;37.488;2024-03-02T02:56:12;73.83;;;26.70;;
22632;SDS011;11483;55.828;37.488;2024-03-02T02:58:39;75.03;;;25.07;;
22632;SDS011;11483;55.828;37.488;2024-03-02T03:01:06;65.67;;;26.30;;
22632;SDS011;11483;55.828;37.488;2024-03-02T03:03:33;86.20;;;26.67;;
22632;SDS011;11483;55.828;37.488;2024-03-02T03:05:59;68.87;;;24.90;;
22632;SDS011;11483;55.828;37.488;2024-03-02T03:08:24;78.70;;;27.70;;
22632;SDS011;11483;55.828;37.488;2024-03-02T03:10:50;73.80;;;25.50;;
22632;SDS011;11483;55.828;37.488;2024-03-02T03:13:17;78.90;;;26.87;;
22632;SDS011;11483;55.828;37.488;2024-03-02T03:15:42;73.53;;;27.30;;
22632;SDS011;11483;55.828;37.488;2024-03-02T03:18:08;77.03;;;26.50;;
22632;SDS011;11483;55.828;37.488;2024-03-02T03:20:35;67.87;;;26.47;;
22632;SDS011;11483;55.828;37.488;2024-03-02T03:23:02;75.00;;;25.03;;
22632;SDS011;11483;55.828;37.488;2024-03-02T03:25:29;75.80;;;24.67;;
22632;SDS011;11483;55.828;37.488;2024-03-02T03:27:55;70.77;;;25.90;;
22632;SDS011;11483;55.828;37.488;2024-03-02T03:30:21;72.33;;;26.10;;
22632;SDS011;11483;55.828;37.488;2024-03-02T03:32:47;72.53;;;26.53;;
22632;SDS011;11483;55.828;37.488;2024-03-02T03:35:13;78.90;;;26.60;;
22632;SDS011;11483;55.828;37.488;2024-03-02T03:37:43;75.90;;;26.00;;
22632;SDS011;11483;55.828;37.488;2024-03-02T03:40:09;83.77;;;26.53;;
22632;SDS011;11483;55.828;37.488;2024-03-02T03:42:36;76.67;;;26.97;;
22632;SDS011;11483;55.828;37.488;2024-03-02T03:45:03;72.07;;;27.23;;
22632;SDS011;11483;55.828;37.488;2024-03-02T03:47:31;80.97;;;27.20;;
22632;SDS011;11483;55.828;37.488;2024-03-02T03:49:58;71.73;;;27.83;;
22632;SDS011;11483;55.828;37.488;2024-03-02T03:52:24;75.43;;;27.90;;
22632;SDS011;11483;55.828;37.488;2024-03-02T03:54:50;85.73;;;27.77;;
22632;SDS011;11483;55.828;37.488;2024-03-02T03:57:16;76.43;;;26.80;;
22632;SDS011;11483;55.828;37.488;2024-03-02T03:59:42;71.80;;;27.00;;
22632;SDS011;11483;55.828;37.488;2024-03-02T04:02:09;79.40;;;27.20;;
22632;SDS011;11483;55.828;37.488;2024-03-02T04:04:37;67.07;;;27.27;;
22632;SDS011;11483;55.828;37.488;2024-03-02T04:07:03;76.67;;;27.20;;
22632;SDS011;11483;55.828;37.488;2024-03-02T04:09:29;80.27;;;26.73;;
22632;SDS011;11483;55.828;37.488;2024-03-02T04:11:55;61.43;;;25.67;;
22632;SDS011;11483;55.828;37.488;2024-03-02T04:14:21;65.93;;;26.47;;
22632;SDS011;11483;55.828;37.488;2024-03-02T04:16:47;79.17;;;28.23;;
22632;SDS011;11483;55.828;37.488;2024-03-02T04:19:13;76.80;;;27.53;;
22632;SDS011;11483;55.828;37.488;2024-03-02T04:21:39;76.23;;;28.13;;
22632;SDS011;11483;55.828;37.488;2024-03-02T04:24:04;81.03;;;28.17;;
22632;SDS011;11483;55.828;37.488;2024-03-02T04:26:30;68.93;;;27.33;;
22632;SDS011;11483;55.828;37.488;2024-03-02T04:28:56;87.97;;;27.50;;
22632;SDS011;11483;55.828;37.488;2024-03-02T04:31:22;77.37;;;27.67;;
22632;SDS011;11483;55.828;37.488;2024-03-02T04:33:48;74.80;;;27.77;;
22632;SDS011;11483;55.828;37.488;2024-03-02T04:36:14;81.37;;;29.50;;
22632;SDS011;11483;55.828;37.488;2024-03-02T04:38:40;81.77;;;28.67;;
22632;SDS011;11483;55.828;37.488;2024-03-02T04:41:06;78.43;;;28.90;;
22632;SDS011;11483;55.828;37.488;2024-03-02T04:43:32;78.00;;;29.13;;
22632;SDS011;11483;55.828;37.488;2024-03-02T04:45:58;84.17;;;30.37;;
22632;SDS011;11483;55.828;37.488;2024-03-02T04:48:25;88.67;;;32.83;;
22632;SDS011;11483;55.828;37.488;2024-03-02T04:50:51;98.57;;;33.00;;
22632;SDS011;11483;55.828;37.488;2024-03-02T04:53:17;95.27;;;36.27;;
22632;SDS011;11483;55.828;37.488;2024-03-02T04:55:43;101.30;;;37.07;;
22632;SDS011;11483;55.828;37.488;2024-03-02T04:58:08;105.33;;;35.90;;
22632;SDS011;11483;55.828;37.488;2024-03-02T05:00:35;100.93;;;36.17;;
22632;SDS011;11483;55.828;37.488;2024-03-02T05:03:02;105.73;;;37.00;;
22632;SDS011;11483;55.828;37.488;2024-03-02T05:05:29;93.00;;;34.73;;
22632;SDS011;11483;55.828;37.488;2024-03-02T05:07:55;99.83;;;36.77;;
22632;SDS011;11483;55.828;37.488;2024-03-02T05:10:21;109.40;;;34.77;;
22632;SDS011;11483;55.828;37.488;2024-03-02T05:12:47;97.63;;;36.20;;
22632;SDS011;11483;55.828;37.488;2024-03-02T05:15:30;102.23;;;37.90;;
22632;SDS011;11483;55.828;37.488;2024-03-02T05:17:56;108.43;;;35.83;;
22632;SDS011;11483;55.828;37.488;2024-03-02T05:20:24;92.93;;;35.23;;
22632;SDS011;11483;55.828;37.488;2024-03-02T05:22:50;99.97;;;35.10;;
22632;SDS011;11483;55.828;37.488;2024-03-02T05:25:16;85.90;;;34.73;;
22632;SDS011;11483;55.828;37.488;2024-03-02T05:27:42;91.27;;;34.13;;
22632;SDS011;11483;55.828;37.488;2024-03-02T05:30:08;101.47;;;37.37;;
22632;SDS011;11483;55.828;37.488;2024-03-02T05:32:35;106.83;;;38.73;;
22632;SDS011;11483;55.828;37.488;2024-03-02T05:35:01;109.23;;;39.17;;
22632;SDS011;11483;55.828;37.488;2024-03-02T05:37:28;106.40;;;41.37;;
22632;SDS011;11483;55.828;37.488;2024-03-02T05:39:54;100.90;;;39.30;;
22632;SDS011;11483;55.828;37.488;2024-03-02T05:42:20;114.00;;;38.07;;
22632;SDS011;11483;55.828;37.488;2024-03-02T05:44:46;99.93;;;36.73;;
22632;SDS011;11483;55.828;37.488;2024-03-02T05:47:11;100.83;;;38.03;;
22632;SDS011;11483;55.828;37.488;2024-03-02T05:49:37;94.63;;;35.77;;
22632;SDS011;11483;55.828;37.488;2024-03-02T05:52:04;101.03;;;35.93;;
22632;SDS011;11483;55.828;37.488;2024-03-02T05:54:30;97.00;;;34.30;;
22632;SDS011;11483;55.828;37.488;2024-03-02T05:56:56;94.40;;;31.70;;
22632;SDS011;11483;55.828;37.488;2024-03-02T05:59:22;92.53;;;33.77;;
22632;SDS011;11483;55.828;37.488;2024-03-02T06:01:47;91.53;;;33.23;;
22632;SDS011;11483;55.828;37.488;2024-03-02T06:04:15;93.53;;;32.77;;
22632;SDS011;11483;55.828;37.488;2024-03-02T06:06:41;82.33;;;29.97;;
22632;SDS011;11483;55.828;37.488;2024-03-02T06:09:08;95.30;;;29.53;;
22632;SDS011;11483;55.828;37.488;2024-03-02T06:11:38;93.03;;;31.13;;
22632;SDS011;11483;55.828;37.488;2024-03-02T06:14:05;82.40;;;30.70;;
22632;SDS011;11483;55.828;37.488;2024-03-02T06:16:32;82.53;;;29.67;;
22632;SDS011;11483;55.828;37.488;2024-03-02T06:18:58;93.20;;;29.83;;
22632;SDS011;11483;55.828;37.488;2024-03-02T06:21:24;90.03;;;30.33;;
22632;SDS011;11483;55.828;37.488;2024-03-02T06:23:51;74.37;;;28.17;;
22632;SDS011;11483;55.828;37.488;2024-03-02T06:26:17;83.37;;;27.90;;
22632;SDS011;11483;55.828;37.488;2024-03-02T06:28:43;85.87;;;31.87;;
22632;SDS011;11483;55.828;37.488;2024-03-02T06:31:10;75.33;;;27.70;;
22632;SDS011;11483;55.828;37.488;2024-03-02T06:33:37;79.93;;;28.87;;
22632;SDS011;11483;55.828;37.488;2024-03-02T06:36:04;79.80;;;29.87;;
22632;SDS011;11483;55.828;37.488;2024-03-02T06:38:33;78.83;;;30.70;;
22632;SDS011;11483;55.828;37.488;2024-03-02T06:40:59;86.03;;;29.97;;
22632;SDS011;11483;55.828;37.488;2024-03-02T06:43:25;78.57;;;30.17;;
22632;SDS011;11483;55.828;37.488;2024-03-02T06:45:51;81.40;;;30.87;;
22632;SDS011;11483;55.828;37.488;2024-03-02T06:48:17;75.57;;;29.40;;
22632;SDS011;11483;55.828;37.488;2024-03-02T06:50:48;82.03;;;30.63;;
22632;SDS011;11483;55.828;37.488;2024-03-02T06:53:15;89.27;;;31.60;;
22632;SDS011;11483;55.828;37.488;2024-03-02T06:55:45;81.63;;;29.93;;
22632;SDS011;11483;55.828;37.488;2024-03-02T06:58:12;83.47;;;31.50;;
22632;SDS011;11483;55.828;37.488;2024-03-02T07:00:40;84.37;;;31.90;;
22632;SDS011;11483;55.828;37.488;2024-03-02T07:03:06;95.50;;;31.23;;
22632;SDS011;11483;55.828;37.488;2024-03-02T07:05:32;93.50;;;31.60;;
22632;SDS011;11483;55.828;37.488;2024-03-02T07:07:58;140.37;;;50.27;;
22632;SDS011;11483;55.828;37.488;2024-03-02T07:10:24;76.57;;;31.30;;
22632;SDS011;11483;55.828;37.488;2024-03-02T07:12:50;78.60;;;31.77;;
22632;SDS011;11483;55.828;37.488;2024-03-02T07:15:15;83.30;;;32.60;;
22632;SDS011;11483;55.828;37.488;2024-03-02T07:17:53;79.13;;;31.88;;
22632;SDS011;11483;55.828;37.488;2024-03-02T07:20:20;81.18;;;32.35;;
22632;SDS011;11483;55.828;37.488;2024-03-02T07:22:46;76.63;;;31.15;;
22632;SDS011;11483;55.828;37.488;2024-03-02T07:25:12;93.13;;;33.30;;
22632;SDS011;11483;55.828;37.488;2024-03-02T07:27:38;87.47;;;32.75;;
22632;SDS011;11483;55.828;37.488;2024-03-02T07:30:05;78.72;;;31.83;;
22632;SDS011;11483;55.828;37.488;2024-03-02T07:32:32;76.25;;;31.33;;
22632;SDS011;11483;55.828;37.488;2024-03-02T07:34:58;74.75;;;31.70;;
22632;SDS011;11483;55.828;37.488;2024-03-02T07:37:23;80.20;;;30.57;;
22632;SDS011;11483;55.828;37.488;2024-03-02T07:39:50;77.68;;;31.08;;
22632;SDS011;11483;55.828;37.488;2024-03-02T07:42:17;86.55;;;30.25;;
22632;SDS011;11483;55.828;37.488;2024-03-02T07:44:44;86.50;;;31.42;;
22632;SDS011;11483;55.828;37.488;2024-03-02T07:47:10;70.55;;;29.75;;
22632;SDS011;11483;55.828;37.488;2024-03-02T07:49:36;83.15;;;30.05;;
22632;SDS011;11483;55.828;37.488;2024-03-02T07:52:03;77.68;;;31.63;;
22632;SDS011;11483;55.828;37.488;2024-03-02T07:54:29;78.63;;;30.30;;
22632;SDS011;11483;55.828;37.488;2024-03-02T07:56:55;80.47;;;31.35;;
22632;SDS011;11483;55.828;37.488;2024-03-02T07:59:20;74.22;;;29.02;;
22632;SDS011;11483;55.828;37.488;2024-03-02T08:01:48;87.30;;;31.13;;
22632;SDS011;11483;55.828;37.488;2024-03-02T08:04:15;73.13;;;31.40;;
22632;SDS011;11483;55.828;37.488;2024-03-02T08:06:42;78.93;;;30.65;;
22632;SDS011;11483;55.828;37.488;2024-03-02T08:09:08;90.65;;;32.33;;
22632;SDS011;11483;55.828;37.488;2024-03-02T08:11:36;84.38;;;30.63;;
22632;SDS011;11483;55.828;37.488;2024-03-02T08:14:02;82.95;;;30.98;;
22632;SDS011;11483;55.828;37.488;2024-03-02T08:16:28;90.03;;;32.10;;
22632;SDS011;11483;55.828;37.488;2024-03-02T08:18:54;83.53;;;32.50;;
22632;SDS011;11483;55.828;37.488;2024-03-02T08:21:23;79.72;;;30.77;;
22632;SDS011;11483;55.828;37.488;2024-03-02T08:23:49;84.47;;;30.05;;
22632;SDS011;11483;55.828;37.488;2024-03-02T08:26:15;81.90;;;30.00;;
22632;SDS011;11483;55.828;37.488;2024-03-02T08:28:41;73.60;;;31.25;;
22632;SDS011;11483;55.828;37.488;2024-03-02T08:31:07;75.60;;;32.10;;
22632;SDS011;11483;55.828;37.488;2024-03-02T08:33:33;89.32;;;32.20;;
22632;SDS011;11483;55.828;37.488;2024-03-02T08:36:00;76.10;;;31.10;;
22632;SDS011;11483;55.828;37.488;2024-03-02T08:38:26;67.78;;;30.30;;
22632;SDS011;11483;55.828;37.488;2024-03-02T08:40:52;74.70;;;29.77;;
22632;SDS011;11483;55.828;37.488;2024-03-02T08:43:18;70.38;;;29.83;;
22632;SDS011;11483;55.828;37.488;2024-03-02T08:45:45;89.60;;;29.52;;
22632;SDS011;11483;55.828;37.488;2024-03-02T08:48:12;78.40;;;30.73;;
22632;SDS011;11483;55.828;37.488;2024-03-02T08:50:38;78.05;;;30.40;;
22632;SDS011;11483;55.828;37.488;2024-03-02T08:53:04;79.32;;;31.75;;
22632;SDS011;11483;55.828;37.488;2024-03-02T08:55:30;75.93;;;28.95;;
22632;SDS011;11483;55.828;37.488;2024-03-02T08:57:56;82.38;;;30.38;;
22632;SDS011;11483;55.828;37.488;2024-03-02T09:00:22;69.25;;;29.23;;
22632;SDS011;11483;55.828;37.488;2024-03-02T09:02:49;70.00;;;29.27;;
22632;SDS011;11483;55.828;37.488;2024-03-02T09:05:15;77.07;;;30.63;;
22632;SDS011;11483;55.828;37.488;2024-03-02T09:07:41;63.50;;;28.20;;
22632;SDS011;11483;55.828;37.488;2024-03-02T09:10:07;71.88;;;29.25;;
22632;SDS011;11483;55.828;37.488;2024-03-02T09:12:33;65.78;;;29.95;;
22632;SDS011;11483;55.828;37.488;2024-03-02T09:15:00;68.18;;;28.35;;
22632;SDS011;11483;55.828;37.488;2024-03-02T09:17:28;83.50;;;29.10;;
22632;SDS011;11483;55.828;37.488;2024-03-02T09:19:55;68.20;;;29.08;;
22632;SDS011;11483;55.828;37.488;2024-03-02T09:22:21;71.20;;;29.40;;
22632;SDS011;11483;55.828;37.488;2024-03-02T09:24:48;70.85;;;30.90;;
22632;SDS011;11483;55.828;37.488;2024-03-02T09:27:14;73.70;;;31.15;;
22632;SDS011;11483;55.828;37.488;2024-03-02T09:29:40;72.53;;;30.60;;
22632;SDS011;11483;55.828;37.488;2024-03-02T09:32:06;71.35;;;29.80;;
22632;SDS011;11483;55.828;37.488;2024-03-02T09:34:33;74.07;;;29.67;;
22632;SDS011;11483;55.828;37.488;2024-03-02T09:36:59;70.07;;;29.80;;
22632;SDS011;11483;55.828;37.488;2024-03-02T09:39:25;85.45;;;33.65;;
22632;SDS011;11483;55.828;37.488;2024-03-02T09:41:51;77.00;;;32.53;;
22632;SDS011;11483;55.828;37.488;2024-03-02T09:44:18;71.43;;;30.60;;
22632;SDS011;11483;55.828;37.488;2024-03-02T09:46:48;70.93;;;30.10;;
22632;SDS011;11483;55.828;37.488;2024-03-02T09:49:14;75.75;;;30.30;;
22632;SDS011;11483;55.828;37.488;2024-03-02T09:51:40;74.68;;;28.90;;
22632;SDS011;11483;55.828;37.488;2024-03-02T09:54:11;68.53;;;29.80;;
22632;SDS011;11483;55.828;37.488;2024-03-02T09:56:36;72.50;;;30.42;;
22632;SDS011;11483;55.828;37.488;2024-03-02T09:59:02;76.95;;;30.67;;
22632;SDS011;11483;55.828;37.488;2024-03-02T10:01:28;76.72;;;30.63;;
22632;SDS011;11483;55.828;37.488;2024-03-02T10:03:54;64.30;;;28.58;;
22632;SDS011;11483;55.828;37.488;2024-03-02T10:06:24;55.08;;;26.35;;
22632;SDS011;11483;55.828;37.488;2024-03-02T10:08:51;68.90;;;27.90;;
22632;SDS011;11483;55.828;37.488;2024-03-02T10:11:28;69.20;;;28.48;;
22632;SDS011;11483;55.828;37.488;2024-03-02T10:14:05;72.25;;;27.60;;
22632;SDS011;11483;55.828;37.488;2024-03-02T10:16:36;59.08;;;26.75;;
22632;SDS011;11483;55.828;37.488;2024-03-02T10:19:22;71.07;;;27.40;;
22632;SDS011;11483;55.828;37.488;2024-03-02T10:21:58;76.53;;;28.50;;
22632;SDS011;11483;55.828;37.488;2024-03-02T10:24:24;64.75;;;28.02;;
22632;SDS011;11483;55.828;37.488;2024-03-02T10:26:51;68.32;;;29.08;;
22632;SDS011;11483;55.828;37.488;2024-03-02T10:29:18;69.38;;;27.58;;
22632;SDS011;11483;55.828;37.488;2024-03-02T10:31:45;61.00;;;27.38;;
22632;SDS011;11483;55.828;37.488;2024-03-02T10:34:12;76.53;;;29.02;;
22632;SDS011;11483;55.828;37.488;2024-03-02T10:36:42;66.88;;;26.55;;
22632;SDS011;11483;55.828;37.488;2024-03-02T10:39:09;67.65;;;26.58;;
22632;SDS011;11483;55.828;37.488;2024-03-02T10:41:35;74.57;;;29.25;;
22632;SDS011;11483;55.828;37.488;2024-03-02T10:44:03;74.22;;;29.63;;
22632;SDS011;11483;55.828;37.488;2024-03-02T10:46:30;77.13;;;29.38;;
22632;SDS011;11483;55.828;37.488;2024-03-02T10:48:58;72.88;;;28.95;;
22632;SDS011;11483;55.828;37.488;2024-03-02T10:51:26;63.80;;;26.75;;
22632;SDS011;11483;55.828;37.488;2024-03-02T10:53:54;67.22;;;25.30;;
22632;SDS011;11483;55.828;37.488;2024-03-02T10:56:30;60.88;;;26.13;;
22632;SDS011;11483;55.828;37.488;2024-03-02T10:59:01;67.13;;;25.83;;
22632;SDS011;11483;55.828;37.488;2024-03-02T11:01:34;69.35;;;26.15;;
22632;SDS011;11483;55.828;37.488;2024-03-02T11:04:02;60.03;;;25.67;;
22632;SDS011;11483;55.828;37.488;2024-03-02T11:06:33;66.53;;;27.00;;
22632;SDS011;11483;55.828;37.488;2024-03-02T11:09:04;63.55;;;25.10;;
22632;SDS011;11483;55.828;37.488;2024-03-02T11:11:36;69.28;;;26.92;;
22632;SDS011;11483;55.828;37.488;2024-03-02T11:14:04;70.85;;;27.23;;
22632;SDS011;11483;55.828;37.488;2024-03-02T11:16:36;74.63;;;26.55;;
22632;SDS011;11483;55.828;37.488;2024-03-02T11:19:21;69.38;;;27.40;;
22632;SDS011;11483;55.828;37.488;2024-03-02T11:21:49;66.07;;;26.08;;
22632;SDS011;11483;55.828;37.488;2024-03-02T11:26:52;63.95;;;27.05;;
22632;SDS011;11483;55.828;37.488;2024-03-02T11:34:39;65.05;;;24.98;;
22632;SDS011;11483;55.828;37.488;2024-03-02T11:37:14;62.60;;;24.73;;
22632;SDS011;11483;55.828;37.488;2024-03-02T11:39:43;75.70;;;25.90;;
22632;SDS011;11483;55.828;37.488;2024-03-02T11:42:10;63.33;;;25.42;;
22632;SDS011;11483;55.828;37.488;2024-03-02T11:44:39;67.10;;;25.95;;
22632;SDS011;11483;55.828;37.488;2024-03-02T11:47:08;72.97;;;26.25;;
22632;SDS011;11483;55.828;37.488;2024-03-02T11:52:09;62.90;;;25.48;;
22632;SDS011;11483;55.828;37.488;2024-03-02T11:54:40;64.50;;;25.27;;
22632;SDS011;11483;55.828;37.488;2024-03-02T11:57:12;77.55;;;27.38;;
22632;SDS011;11483;55.828;37.488;2024-03-02T11:59:40;66.32;;;27.17;;
22632;SDS011;11483;55.828;37.488;2024-03-02T12:02:06;66.85;;;25.73;;
22632;SDS011;11483;55.828;37.488;2024-03-02T12:04:32;67.65;;;26.35;;
22632;SDS011;11483;55.828;37.488;2024-03-02T12:07:00;70.57;;;25.48;;
22632;SDS011;11483;55.828;37.488;2024-03-02T12:09:28;69.45;;;27.20;;
22632;SDS011;11483;55.828;37.488;2024-03-02T12:12:01;64.25;;;27.33;;
22632;SDS011;11483;55.828;37.488;2024-03-02T12:14:32;79.13;;;31.85;;
22632;SDS011;11483;55.828;37.488;2024-03-02T12:16:58;61.67;;;25.40;;
22632;SDS011;11483;55.828;37.488;2024-03-02T12:19:25;66.60;;;25.52;;
22632;SDS011;11483;55.828;37.488;2024-03-02T12:21:52;66.43;;;27.00;;
22632;SDS011;11483;55.828;37.488;2024-03-02T12:24:20;62.97;;;27.27;;
22632;SDS011;11483;55.828;37.488;2024-03-02T12:26:47;59.60;;;26.15;;
22632;SDS011;11483;55.828;37.488;2024-03-02T12:29:18;60.17;;;26.00;;
22632;SDS011;11483;55.828;37.488;2024-03-02T12:31:45;70.57;;;27.23;;
22632;SDS011;11483;55.828;37.488;2024-03-02T12:34:13;66.10;;;26.77;;
22632;SDS011;11483;55.828;37.488;2024-03-02T12:36:42;68.93;;;27.27;;
22632;SDS011;11483;55.828;37.488;2024-03-02T12:39:09;68.65;;;26.38;;
22632;SDS011;11483;55.828;37.488;2024-03-02T12:41:38;61.53;;;25.75;;
22632;SDS011;11483;55.828;37.488;2024-03-02T12:44:04;72.68;;;26.60;;
22632;SDS011;11483;55.828;37.488;2024-03-02T12:46:31;64.43;;;25.33;;
22632;SDS011;11483;55.828;37.488;2024-03-02T12:48:57;68.00;;;25.63;;
22632;SDS011;11483;55.828;37.488;2024-03-02T12:51:26;81.95;;;30.88;;
22632;SDS011;11483;55.828;37.488;2024-03-02T12:53:53;59.78;;;24.92;;
22632;SDS011;11483;55.828;37.488;2024-03-02T12:56:23;57.10;;;24.90;;
22632;SDS011;11483;55.828;37.488;2024-03-02T12:58:54;65.68;;;25.92;;
22632;SDS011;11483;55.828;37.488;2024-03-02T13:01:20;68.28;;;26.05;;
22632;SDS011;11483;55.828;37.488;2024-03-02T13:03:49;76.63;;;27.10;;
22632;SDS011;11483;55.828;37.488;2024-03-02T13:06:16;73.05;;;25.60;;
22632;SDS011;11483;55.828;37.488;2024-03-02T13:08:44;76.13;;;24.88;;
22632;SDS011;11483;55.828;37.488;2024-03-02T13:11:11;63.20;;;23.45;;
22632;SDS011;11483;55.828;37.488;2024-03-02T13:13:38;64.18;;;24.48;;
22632;SDS011;11483;55.828;37.488;2024-03-02T13:16:10;60.80;;;26.30;;
22632;SDS011;11483;55.828;37.488;2024-03-02T13:18:41;63.50;;;24.30;;
22632;SDS011;11483;55.828;37.488;2024-03-02T13:21:10;66.63;;;25.17;;
22632;SDS011;11483;55.828;37.488;2024-03-02T13:23:36;60.33;;;24.52;;
22632;SDS011;11483;55.828;37.488;2024-03-02T13:26:02;56.80;;;23.55;;
22632;SDS011;11483;55.828;37.488;2024-03-02T13:28:28;62.28;;;23.52;;
22632;SDS011;11483;55.828;37.488;2024-03-02T13:30:54;57.53;;;23.58;;
22632;SDS011;11483;55.828;37.488;2024-03-02T13:33:20;51.20;;;21.65;;
22632;SDS011;11483;55.828;37.488;2024-03-02T13:35:49;56.53;;;22.17;;
22632;SDS011;11483;55.828;37.488;2024-03-02T13:38:19;54.25;;;22.77;;
22632;SDS011;11483;55.828;37.488;2024-03-02T13:40:46;64.40;;;23.30;;
22632;SDS011;11483;55.828;37.488;2024-03-02T13:43:16;55.67;;;22.23;;
22632;SDS011;11483;55.828;37.488;2024-03-02T13:45:43;55.40;;;21.00;;
22632;SDS011;11483;55.828;37.488;2024-03-02T13:48:09;59.30;;;22.57;;
22632;SDS011;11483;55.828;37.488;2024-03-02T13:50:35;66.37;;;21.90;;
22632;SDS011;11483;55.828;37.488;2024-03-02T13:53:01;54.25;;;21.02;;
22632;SDS011;11483;55.828;37.488;2024-03-02T13:55:28;58.20;;;21.40;;
22632;SDS011;11483;55.828;37.488;2024-03-02T13:57:54;52.63;;;21.08;;
22632;SDS011;11483;55.828;37.488;2024-03-02T14:00:20;51.40;;;20.70;;
22632;SDS011;11483;55.828;37.488;2024-03-02T14:02:46;55.00;;;20.63;;
22632;SDS011;11483;55.828;37.488;2024-03-02T14:05:16;51.93;;;19.87;;
22632;SDS011;11483;55.828;37.488;2024-03-02T14:07:44;51.17;;;20.40;;
22632;SDS011;11483;55.828;37.488;2024-03-02T14:10:10;58.33;;;19.90;;
22632;SDS011;11483;55.828;37.488;2024-03-02T14:12:36;46.30;;;19.27;;
22632;SDS011;11483;55.828;37.488;2024-03-02T14:15:03;49.30;;;19.77;;
22632;SDS011;11483;55.828;37.488;2024-03-02T14:17:30;51.07;;;20.23;;
22632;SDS011;11483;55.828;37.488;2024-03-02T14:19:59;59.07;;;20.90;;
22632;SDS011;11483;55.828;37.488;2024-03-02T14:22:25;49.60;;;20.00;;